createdAt,value
2017-12-30T00:00:17.214Z,0
2017-12-30T00:01:25.809Z,0
2017-12-30T00:02:34.402Z,0
2017-12-30T00:03:43.008Z,0
2017-12-30T00:04:51.607Z,0
2017-12-30T00:06:00.196Z,0
2017-12-30T00:07:08.807Z,0
2017-12-30T00:08:17.408Z,0
2017-12-30T00:09:26.008Z,0
2017-12-30T00:10:34.606Z,0
2017-12-30T00:11:43.202Z,0
2017-12-30T00:12:51.808Z,0
2017-12-30T00:14:00.404Z,0
2017-12-30T00:15:08.993Z,0
2017-12-30T00:16:17.608Z,0
2017-12-30T00:17:26.210Z,0
2017-12-30T00:18:35.097Z,0
2017-12-30T00:19:43.662Z,0
2017-12-30T00:20:52.271Z,0
2017-12-30T00:22:00.863Z,0
2017-12-30T00:23:09.473Z,0
2017-12-30T00:24:18.062Z,0
2017-12-30T00:25:26.937Z,0
2017-12-30T00:26:35.536Z,0
2017-12-30T00:27:44.128Z,0
2017-12-30T00:28:52.733Z,0
2017-12-30T00:30:01.341Z,0
2017-12-30T00:31:09.929Z,0
2017-12-30T00:32:18.530Z,0
2017-12-30T00:33:27.139Z,0
2017-12-30T00:34:35.732Z,0
2017-12-30T00:35:44.328Z,0
2017-12-30T00:36:52.939Z,0
2017-12-30T00:38:01.529Z,0
2017-12-30T00:39:10.137Z,0
2017-12-30T00:40:18.725Z,0
2017-12-30T00:41:27.332Z,0
2017-12-30T00:42:35.942Z,0
2017-12-30T00:43:44.529Z,0
2017-12-30T00:44:53.125Z,0
2017-12-30T00:46:01.739Z,0
2017-12-30T00:47:10.333Z,0
2017-12-30T00:48:18.930Z,0
2017-12-30T00:49:27.540Z,0
2017-12-30T00:50:36.182Z,0
2017-12-30T00:51:44.722Z,0
2017-12-30T00:52:53.326Z,0
2017-12-30T00:54:01.928Z,0
2017-12-30T00:55:10.794Z,0
2017-12-30T00:56:19.423Z,0
2017-12-30T00:57:27.982Z,0
2017-12-30T00:58:36.588Z,0
2017-12-30T00:59:45.188Z,0
2017-12-30T01:00:53.777Z,0
2017-12-30T01:02:02.391Z,0
2017-12-30T01:03:10.996Z,0
2017-12-30T01:04:19.584Z,0
2017-12-30T01:05:28.191Z,0
2017-12-30T01:06:36.796Z,0
2017-12-30T01:07:45.398Z,0
2017-12-30T01:08:53.995Z,0
2017-12-30T01:10:02.592Z,0
2017-12-30T01:11:11.198Z,0
2017-12-30T01:12:19.799Z,0
2017-12-30T01:13:28.388Z,0
2017-12-30T01:14:36.988Z,0
2017-12-30T01:15:45.597Z,0
2017-12-30T01:16:54.184Z,0
2017-12-30T01:18:02.787Z,0
2017-12-30T01:19:11.401Z,0
2017-12-30T01:20:20.254Z,0
2017-12-30T01:21:28.851Z,0
2017-12-30T01:22:37.446Z,0
2017-12-30T01:23:46.318Z,0
2017-12-30T01:24:55.181Z,0
2017-12-30T01:26:03.771Z,0
2017-12-30T01:27:12.372Z,0
2017-12-30T01:28:20.984Z,0
2017-12-30T01:29:29.577Z,0
2017-12-30T01:30:38.170Z,0
2017-12-30T01:31:46.785Z,0
2017-12-30T01:32:55.379Z,0
2017-12-30T01:34:03.972Z,0
2017-12-30T01:35:12.581Z,0
2017-12-30T01:36:21.177Z,0
2017-12-30T01:37:29.783Z,0
2017-12-30T01:38:38.373Z,0
2017-12-30T01:39:46.973Z,0
2017-12-30T01:40:55.584Z,0
2017-12-30T01:42:04.179Z,0
2017-12-30T01:43:12.768Z,0
2017-12-30T01:44:21.381Z,0
2017-12-30T01:45:29.977Z,0
2017-12-30T01:46:38.562Z,0
2017-12-30T01:47:47.174Z,0
2017-12-30T01:48:55.778Z,0
2017-12-30T01:50:04.368Z,0
2017-12-30T01:51:12.975Z,0
2017-12-30T01:52:21.582Z,0
2017-12-30T01:53:30.168Z,0
2017-12-30T01:54:38.767Z,0
2017-12-30T01:55:47.635Z,0
2017-12-30T01:56:56.226Z,0
2017-12-30T01:58:04.823Z,0
2017-12-30T01:59:13.435Z,0
2017-12-30T02:00:22.028Z,0
2017-12-30T02:01:30.621Z,0
2017-12-30T02:02:39.229Z,0
2017-12-30T02:03:47.827Z,0
2017-12-30T02:04:56.418Z,0
2017-12-30T02:06:05.023Z,0
2017-12-30T02:07:13.622Z,0
2017-12-30T02:08:22.233Z,0
2017-12-30T02:09:30.827Z,0
2017-12-30T02:10:39.419Z,0
2017-12-30T02:11:48.027Z,0
2017-12-30T02:12:56.624Z,0
2017-12-30T02:14:05.210Z,0
2017-12-30T02:15:13.823Z,0
2017-12-30T02:16:22.426Z,0
2017-12-30T02:17:31.018Z,0
2017-12-30T02:18:39.618Z,0
2017-12-30T02:19:48.224Z,0
2017-12-30T02:20:56.824Z,0
2017-12-30T02:22:05.425Z,0
2017-12-30T02:23:14.012Z,0
2017-12-30T02:24:22.621Z,0
2017-12-30T02:25:31.223Z,0
2017-12-30T02:26:39.813Z,0
2017-12-30T02:27:48.417Z,0
2017-12-30T02:28:57.031Z,0
2017-12-30T02:30:05.624Z,0
2017-12-30T02:31:14.220Z,0
2017-12-30T02:32:22.830Z,0
2017-12-30T02:33:31.418Z,0
2017-12-30T02:34:40.023Z,0
2017-12-30T02:35:48.617Z,0
2017-12-30T02:36:57.222Z,0
2017-12-30T02:38:05.830Z,0
2017-12-30T02:39:14.418Z,0
2017-12-30T02:40:23.021Z,0
2017-12-30T02:41:31.632Z,0
2017-12-30T02:42:40.219Z,0
2017-12-30T02:43:48.815Z,0
2017-12-30T02:44:57.426Z,0
2017-12-30T02:46:06.273Z,0
2017-12-30T02:47:14.868Z,0
2017-12-30T02:48:23.475Z,0
2017-12-30T02:49:32.072Z,0
2017-12-30T02:50:40.683Z,0
2017-12-30T02:51:49.273Z,0
2017-12-30T02:52:57.868Z,0
2017-12-30T02:54:06.479Z,0
2017-12-30T02:55:15.074Z,0
2017-12-30T02:56:23.674Z,0
2017-12-30T02:57:32.285Z,0
2017-12-30T02:58:40.882Z,0
2017-12-30T02:59:49.469Z,0
2017-12-30T03:00:58.080Z,0
2017-12-30T03:02:06.681Z,0
2017-12-30T03:03:15.272Z,0
2017-12-30T03:04:23.877Z,0
2017-12-30T03:05:32.471Z,0
2017-12-30T03:06:41.086Z,0
2017-12-30T03:07:49.684Z,0
2017-12-30T03:08:58.275Z,0
2017-12-30T03:10:06.884Z,0
2017-12-30T03:11:15.483Z,0
2017-12-30T03:12:24.068Z,0
2017-12-30T03:13:32.672Z,0
2017-12-30T03:14:41.281Z,0
2017-12-30T03:15:49.869Z,0
2017-12-30T03:16:58.471Z,0
2017-12-30T03:18:07.347Z,0
2017-12-30T03:19:15.935Z,0
2017-12-30T03:20:24.538Z,0
2017-12-30T03:21:33.124Z,0
2017-12-30T03:22:41.732Z,0
2017-12-30T03:23:50.337Z,0
2017-12-30T03:24:58.926Z,0
2017-12-30T03:26:07.531Z,0
2017-12-30T03:27:16.141Z,0
2017-12-30T03:28:24.725Z,0
2017-12-30T03:29:33.319Z,0
2017-12-30T03:30:42.194Z,0
2017-12-30T03:31:50.785Z,0
2017-12-30T03:32:59.377Z,0
2017-12-30T03:34:07.979Z,0
2017-12-30T03:35:16.576Z,0
2017-12-30T03:36:25.448Z,0
2017-12-30T03:37:34.035Z,0
2017-12-30T03:38:42.639Z,0
2017-12-30T03:39:51.245Z,0
2017-12-30T03:40:59.837Z,0
2017-12-30T03:42:08.685Z,0
2017-12-30T03:43:17.294Z,0
2017-12-30T03:44:25.891Z,0
2017-12-30T03:45:35.006Z,0
2017-12-30T03:46:43.614Z,0
2017-12-30T03:47:52.215Z,0
2017-12-30T03:49:00.801Z,0
2017-12-30T03:50:09.410Z,0
2017-12-30T03:51:18.014Z,0
2017-12-30T03:52:26.607Z,0
2017-12-30T03:53:35.204Z,0
2017-12-30T03:54:43.816Z,0
2017-12-30T03:55:52.662Z,0
2017-12-30T03:57:01.259Z,0
2017-12-30T03:58:09.869Z,0
2017-12-30T03:59:18.463Z,0
2017-12-30T04:00:27.312Z,0
2017-12-30T04:01:35.921Z,0
2017-12-30T04:02:44.519Z,0
2017-12-30T04:03:53.127Z,0
2017-12-30T04:05:01.713Z,0
2017-12-30T04:06:10.308Z,0
2017-12-30T04:07:19.173Z,0
2017-12-30T04:08:27.764Z,0
2017-12-30T04:09:36.360Z,0
2017-12-30T04:10:44.970Z,0
2017-12-30T04:11:53.826Z,0
2017-12-30T04:13:02.415Z,0
2017-12-30T04:14:11.024Z,0
2017-12-30T04:15:19.624Z,0
2017-12-30T04:16:28.211Z,0
2017-12-30T04:17:36.817Z,0
2017-12-30T04:18:45.407Z,0
2017-12-30T04:19:54.280Z,0
2017-12-30T04:21:02.879Z,0
2017-12-30T04:22:11.464Z,0
2017-12-30T04:23:20.072Z,0
2017-12-30T04:24:28.677Z,0
2017-12-30T04:25:37.270Z,0
2017-12-30T04:26:45.875Z,0
2017-12-30T04:27:54.481Z,0
2017-12-30T04:29:03.073Z,0
2017-12-30T04:30:11.675Z,0
2017-12-30T04:31:20.284Z,0
2017-12-30T04:32:28.878Z,0
2017-12-30T04:33:37.482Z,0
2017-12-30T04:34:46.066Z,0
2017-12-30T04:35:54.671Z,0
2017-12-30T04:37:03.271Z,0
2017-12-30T04:38:11.864Z,0
2017-12-30T04:39:20.468Z,0
2017-12-30T04:40:29.076Z,0
2017-12-30T04:41:37.665Z,0
2017-12-30T04:42:46.262Z,0
2017-12-30T04:43:55.129Z,0
2017-12-30T04:45:03.722Z,0
2017-12-30T04:46:12.315Z,0
2017-12-30T04:47:20.914Z,0
2017-12-30T04:48:29.513Z,0
2017-12-30T04:49:38.120Z,0
2017-12-30T04:50:46.713Z,0
2017-12-30T04:51:55.311Z,0
2017-12-30T04:53:03.921Z,0
2017-12-30T04:54:12.518Z,0
2017-12-30T04:55:21.108Z,0
2017-12-30T04:56:29.713Z,0
2017-12-30T04:57:38.574Z,0
2017-12-30T04:58:47.160Z,0
2017-12-30T04:59:55.771Z,0
2017-12-30T05:01:04.371Z,0
2017-12-30T05:02:12.978Z,0
2017-12-30T05:03:21.569Z,0
2017-12-30T05:04:30.163Z,0
2017-12-30T05:05:38.771Z,0
2017-12-30T05:06:47.372Z,0
2017-12-30T05:07:55.962Z,0
2017-12-30T05:09:04.571Z,0
2017-12-30T05:10:13.171Z,0
2017-12-30T05:11:21.763Z,0
2017-12-30T05:12:30.368Z,0
2017-12-30T05:13:38.976Z,0
2017-12-30T05:14:47.561Z,0
2017-12-30T05:15:56.162Z,0
2017-12-30T05:17:04.754Z,0
2017-12-30T05:18:13.361Z,0
2017-12-30T05:19:21.960Z,0
2017-12-30T05:20:30.552Z,0
2017-12-30T05:21:39.156Z,0
2017-12-30T05:22:48.031Z,0
2017-12-30T05:23:56.621Z,0
2017-12-30T05:25:05.223Z,0
2017-12-30T05:26:13.828Z,0
2017-12-30T05:27:22.417Z,0
2017-12-30T05:28:31.276Z,0
2017-12-30T05:29:39.889Z,0
2017-12-30T05:30:48.483Z,0
2017-12-30T05:31:57.089Z,0
2017-12-30T05:33:05.681Z,0
2017-12-30T05:34:14.284Z,0
2017-12-30T05:35:22.893Z,0
2017-12-30T05:36:31.747Z,0
2017-12-30T05:37:40.343Z,0
2017-12-30T05:38:48.955Z,0
2017-12-30T05:39:57.545Z,0
2017-12-30T05:41:06.141Z,0
2017-12-30T05:42:14.747Z,0
2017-12-30T05:43:23.346Z,0
2017-12-30T05:44:32.191Z,0
2017-12-30T05:45:40.806Z,0
2017-12-30T05:46:49.403Z,0
2017-12-30T05:47:57.997Z,0
2017-12-30T05:49:06.597Z,0
2017-12-30T05:50:15.207Z,0
2017-12-30T05:51:23.791Z,0
2017-12-30T05:52:32.394Z,0
2017-12-30T05:53:41.000Z,0
2017-12-30T05:54:49.590Z,0
2017-12-30T05:55:58.189Z,0
2017-12-30T05:57:06.800Z,0
2017-12-30T05:58:15.386Z,0
2017-12-30T05:59:23.978Z,0
2017-12-30T06:00:32.583Z,0
2017-12-30T06:01:41.183Z,0
2017-12-30T06:02:49.790Z,0
2017-12-30T06:03:58.378Z,0
2017-12-30T06:05:06.974Z,0
2017-12-30T06:06:15.584Z,0
2017-12-30T06:07:24.175Z,0
2017-12-30T06:08:32.771Z,0
2017-12-30T06:09:41.378Z,0
2017-12-30T06:10:49.975Z,0
2017-12-30T06:11:58.565Z,0
2017-12-30T06:13:07.179Z,0
2017-12-30T06:14:15.783Z,0
2017-12-30T06:15:24.384Z,0
2017-12-30T06:16:32.972Z,0
2017-12-30T06:17:41.564Z,0
2017-12-30T06:18:50.175Z,0
2017-12-30T06:19:58.773Z,0
2017-12-30T06:21:07.359Z,0
2017-12-30T06:22:15.973Z,0
2017-12-30T06:23:24.572Z,0
2017-12-30T06:24:33.163Z,0
2017-12-30T06:25:41.776Z,0
2017-12-30T06:26:50.383Z,0
2017-12-30T06:27:58.968Z,0
2017-12-30T06:29:07.568Z,0
2017-12-30T06:30:16.161Z,0
2017-12-30T06:31:24.766Z,0
2017-12-30T06:32:33.366Z,0
2017-12-30T06:33:41.955Z,0
2017-12-30T06:34:50.561Z,0
2017-12-30T06:35:59.171Z,0
2017-12-30T06:37:07.753Z,0
2017-12-30T06:38:16.356Z,0
2017-12-30T06:39:24.964Z,0
2017-12-30T06:40:33.559Z,0
2017-12-30T06:41:42.151Z,0
2017-12-30T06:42:50.763Z,0
2017-12-30T06:43:59.356Z,0
2017-12-30T06:45:07.963Z,0
2017-12-30T06:46:16.555Z,0
2017-12-30T06:47:25.166Z,0
2017-12-30T06:48:33.771Z,0
2017-12-30T06:49:42.358Z,0
2017-12-30T06:50:50.955Z,0
2017-12-30T06:51:59.566Z,0
2017-12-30T06:53:08.162Z,0
2017-12-30T06:54:17.012Z,0
2017-12-30T06:55:25.621Z,0
2017-12-30T06:56:34.220Z,0
2017-12-30T06:57:42.809Z,0
2017-12-30T06:58:51.676Z,0
2017-12-30T07:00:00.276Z,0
2017-12-30T07:01:08.882Z,0
2017-12-30T07:02:17.476Z,0
2017-12-30T07:03:26.068Z,0
2017-12-30T07:04:35.197Z,0
2017-12-30T07:05:43.798Z,0
2017-12-30T07:06:52.384Z,0
2017-12-30T07:08:00.993Z,0
2017-12-30T07:09:09.591Z,0
2017-12-30T07:10:18.182Z,0
2017-12-30T07:11:26.793Z,0
2017-12-30T07:12:35.399Z,0
2017-12-30T07:13:43.996Z,0
2017-12-30T07:14:52.594Z,0
2017-12-30T07:16:01.186Z,0
2017-12-30T07:17:09.794Z,0
2017-12-30T07:18:18.396Z,0
2017-12-30T07:19:26.988Z,0
2017-12-30T07:20:35.600Z,0
2017-12-30T07:21:44.206Z,0
2017-12-30T07:22:53.062Z,0
2017-12-30T07:24:01.662Z,0
2017-12-30T07:25:10.275Z,0
2017-12-30T07:26:18.865Z,0
2017-12-30T07:27:27.725Z,0
2017-12-30T07:28:36.326Z,0
2017-12-30T07:29:44.931Z,0
2017-12-30T07:30:53.540Z,0
2017-12-30T07:32:02.131Z,0
2017-12-30T07:33:10.993Z,0
2017-12-30T07:34:19.605Z,0
2017-12-30T07:35:28.191Z,0
2017-12-30T07:36:36.788Z,0
2017-12-30T07:37:45.395Z,0
2017-12-30T07:38:53.986Z,0
2017-12-30T07:40:02.582Z,0
2017-12-30T07:41:11.193Z,0
2017-12-30T07:42:19.789Z,0
2017-12-30T07:43:28.381Z,0
2017-12-30T07:44:37.250Z,0
2017-12-30T07:45:45.851Z,0
2017-12-30T07:46:54.436Z,0
2017-12-30T07:48:03.045Z,0
2017-12-30T07:49:11.649Z,0
2017-12-30T07:50:20.237Z,0
2017-12-30T07:51:28.839Z,0
2017-12-30T07:52:37.448Z,0
2017-12-30T07:53:46.035Z,0
2017-12-30T07:54:54.634Z,0
2017-12-30T07:56:03.245Z,0
2017-12-30T07:57:11.836Z,0
2017-12-30T07:58:20.439Z,5
2017-12-30T07:59:29.300Z,5
2017-12-30T08:00:37.900Z,5
2017-12-30T08:01:46.549Z,5
2017-12-30T08:02:55.356Z,5
2017-12-30T08:04:03.950Z,5
2017-12-30T08:05:12.561Z,5
2017-12-30T08:06:21.156Z,5
2017-12-30T08:07:29.751Z,5
2017-12-30T08:08:38.359Z,5
2017-12-30T08:09:46.959Z,5
2017-12-30T08:10:55.547Z,10
2017-12-30T08:12:04.156Z,10
2017-12-30T08:13:12.756Z,10
2017-12-30T08:14:21.363Z,10
2017-12-30T08:15:29.960Z,15
2017-12-30T08:16:38.552Z,15
2017-12-30T08:17:47.168Z,10
2017-12-30T08:18:55.761Z,10
2017-12-30T08:20:04.353Z,10
2017-12-30T08:21:12.960Z,15
2017-12-30T08:22:21.563Z,20
2017-12-30T08:23:30.152Z,20
2017-12-30T08:24:38.759Z,20
2017-12-30T08:25:47.367Z,15
2017-12-30T08:26:55.964Z,20
2017-12-30T08:28:04.562Z,20
2017-12-30T08:29:13.154Z,20
2017-12-30T08:30:21.762Z,20
2017-12-30T08:31:30.366Z,20
2017-12-30T08:32:38.954Z,15
2017-12-30T08:33:47.564Z,15
2017-12-30T08:34:56.172Z,15
2017-12-30T08:36:04.762Z,15
2017-12-30T08:37:13.366Z,15
2017-12-30T08:38:21.980Z,15
2017-12-30T08:39:30.564Z,15
2017-12-30T08:40:39.162Z,15
2017-12-30T08:41:47.761Z,20
2017-12-30T08:42:56.369Z,20
2017-12-30T08:44:04.976Z,20
2017-12-30T08:45:13.830Z,20
2017-12-30T08:46:22.436Z,25
2017-12-30T08:47:31.046Z,30
2017-12-30T08:48:39.894Z,25
2017-12-30T08:49:48.490Z,25
2017-12-30T08:50:57.102Z,25
2017-12-30T08:52:05.693Z,25
2017-12-30T08:53:14.289Z,20
2017-12-30T08:54:23.159Z,25
2017-12-30T08:55:31.759Z,25
2017-12-30T08:56:40.625Z,30
2017-12-30T08:57:49.214Z,25
2017-12-30T08:58:58.068Z,25
2017-12-30T09:00:06.953Z,30
2017-12-30T09:01:15.549Z,35
2017-12-30T09:02:24.143Z,40
2017-12-30T09:03:32.753Z,45
2017-12-30T09:04:41.354Z,50
2017-12-30T09:05:49.939Z,60
2017-12-30T09:06:58.551Z,55
2017-12-30T09:08:07.149Z,45
2017-12-30T09:09:15.742Z,35
2017-12-30T09:10:24.352Z,35
2017-12-30T09:11:33.199Z,40
2017-12-30T09:12:41.812Z,40
2017-12-30T09:13:50.409Z,40
2017-12-30T09:14:59.002Z,45
2017-12-30T09:16:07.614Z,50
2017-12-30T09:17:16.473Z,55
2017-12-30T09:18:25.062Z,60
2017-12-30T09:19:33.672Z,55
2017-12-30T09:20:42.279Z,55
2017-12-30T09:21:50.869Z,50
2017-12-30T09:22:59.471Z,50
2017-12-30T09:24:08.083Z,45
2017-12-30T09:25:16.939Z,50
2017-12-30T09:26:25.541Z,60
2017-12-30T09:27:34.127Z,55
2017-12-30T09:28:42.994Z,55
2017-12-30T09:29:51.600Z,45
2017-12-30T09:31:00.189Z,45
2017-12-30T09:32:09.055Z,50
2017-12-30T09:33:17.668Z,55
2017-12-30T09:34:26.253Z,55
2017-12-30T09:35:34.852Z,45
2017-12-30T09:36:43.462Z,45
2017-12-30T09:37:52.314Z,50
2017-12-30T09:39:00.908Z,50
2017-12-30T09:40:09.517Z,55
2017-12-30T09:41:18.118Z,55
2017-12-30T09:42:26.706Z,45
2017-12-30T09:43:35.314Z,30
2017-12-30T09:44:43.917Z,40
2017-12-30T09:45:52.507Z,35
2017-12-30T09:47:01.118Z,35
2017-12-30T09:48:09.722Z,35
2017-12-30T09:49:18.308Z,40
2017-12-30T09:50:26.908Z,35
2017-12-30T09:51:35.522Z,45
2017-12-30T09:52:44.112Z,55
2017-12-30T09:53:52.709Z,60
2017-12-30T09:55:01.304Z,60
2017-12-30T09:56:09.910Z,50
2017-12-30T09:57:18.516Z,50
2017-12-30T09:58:27.102Z,45
2017-12-30T09:59:35.708Z,45
2017-12-30T10:00:44.316Z,50
2017-12-30T10:01:53.170Z,55
2017-12-30T10:03:01.765Z,50
2017-12-30T10:04:10.379Z,55
2017-12-30T10:05:18.972Z,55
2017-12-30T10:06:27.569Z,60
2017-12-30T10:07:36.178Z,75
2017-12-30T10:08:44.774Z,65
2017-12-30T10:09:53.912Z,60
2017-12-30T10:11:02.501Z,60
2017-12-30T10:12:11.099Z,60
2017-12-30T10:13:19.964Z,65
2017-12-30T10:14:28.562Z,60
2017-12-30T10:15:37.154Z,55
2017-12-30T10:16:45.763Z,55
2017-12-30T10:17:54.615Z,50
2017-12-30T10:19:03.203Z,50
2017-12-30T10:20:11.814Z,55
2017-12-30T10:21:20.415Z,65
2017-12-30T10:22:29.009Z,60
2017-12-30T10:23:37.614Z,55
2017-12-30T10:24:46.206Z,55
2017-12-30T10:25:54.814Z,55
2017-12-30T10:27:03.412Z,60
2017-12-30T10:28:12.003Z,60
2017-12-30T10:29:20.614Z,70
2017-12-30T10:30:29.218Z,75
2017-12-30T10:31:37.808Z,75
2017-12-30T10:32:46.416Z,80
2017-12-30T10:33:55.024Z,90
2017-12-30T10:35:03.615Z,80
2017-12-30T10:36:12.214Z,65
2017-12-30T10:37:20.822Z,50
2017-12-30T10:38:29.416Z,45
2017-12-30T10:39:38.020Z,55
2017-12-30T10:40:46.866Z,55
2017-12-30T10:41:55.729Z,60
2017-12-30T10:43:04.335Z,60
2017-12-30T10:44:12.924Z,55
2017-12-30T10:45:21.526Z,50
2017-12-30T10:46:30.137Z,55
2017-12-30T10:47:38.728Z,65
2017-12-30T10:48:47.325Z,80
2017-12-30T10:49:55.936Z,85
2017-12-30T10:51:04.531Z,65
2017-12-30T10:52:13.127Z,55
2017-12-30T10:53:21.730Z,40
2017-12-30T10:54:30.332Z,45
2017-12-30T10:55:38.944Z,40
2017-12-30T10:56:47.532Z,50
2017-12-30T10:57:56.131Z,40
2017-12-30T10:59:04.740Z,45
2017-12-30T11:00:13.336Z,45
2017-12-30T11:01:21.932Z,50
2017-12-30T11:02:30.543Z,45
2017-12-30T11:03:39.140Z,55
2017-12-30T11:04:47.732Z,65
2017-12-30T11:05:56.341Z,60
2017-12-30T11:07:04.941Z,60
2017-12-30T11:08:13.548Z,55
2017-12-30T11:09:22.139Z,50
2017-12-30T11:10:30.992Z,45
2017-12-30T11:11:39.858Z,40
2017-12-30T11:12:48.456Z,40
2017-12-30T11:13:57.050Z,45
2017-12-30T11:15:05.661Z,40
2017-12-30T11:16:14.263Z,40
2017-12-30T11:17:23.113Z,45
2017-12-30T11:18:31.719Z,55
2017-12-30T11:19:40.326Z,50
2017-12-30T11:20:48.917Z,35
2017-12-30T11:21:57.519Z,45
2017-12-30T11:23:06.108Z,50
2017-12-30T11:24:14.720Z,40
2017-12-30T11:25:23.325Z,40
2017-12-30T11:26:31.918Z,35
2017-12-30T11:27:40.522Z,35
2017-12-30T11:28:49.128Z,35
2017-12-30T11:29:57.719Z,35
2017-12-30T11:31:06.324Z,35
2017-12-30T11:32:14.934Z,30
2017-12-30T11:33:23.527Z,30
2017-12-30T11:34:32.129Z,30
2017-12-30T11:35:40.739Z,30
2017-12-30T11:36:49.333Z,25
2017-12-30T11:37:57.926Z,35
2017-12-30T11:39:06.541Z,35
2017-12-30T11:40:15.145Z,35
2017-12-30T11:41:23.732Z,35
2017-12-30T11:42:32.344Z,35
2017-12-30T11:43:40.980Z,30
2017-12-30T11:44:49.535Z,25
2017-12-30T11:45:58.147Z,30
2017-12-30T11:47:07.014Z,30
2017-12-30T11:48:15.860Z,30
2017-12-30T11:49:24.469Z,25
2017-12-30T11:50:33.078Z,30
2017-12-30T11:51:41.673Z,30
2017-12-30T11:52:50.278Z,35
2017-12-30T11:53:58.867Z,40
2017-12-30T11:55:07.473Z,45
2017-12-30T11:56:16.080Z,65
2017-12-30T11:57:24.676Z,65
2017-12-30T11:58:33.280Z,50
2017-12-30T11:59:41.894Z,60
2017-12-30T12:00:50.483Z,45
2017-12-30T12:01:59.080Z,35
2017-12-30T12:03:07.692Z,25
2017-12-30T12:04:16.293Z,35
2017-12-30T12:05:24.884Z,50
2017-12-30T12:06:33.485Z,35
2017-12-30T12:07:42.090Z,35
2017-12-30T12:08:50.703Z,45
2017-12-30T12:09:59.294Z,50
2017-12-30T12:11:07.899Z,40
2017-12-30T12:12:16.506Z,50
2017-12-30T12:13:25.101Z,45
2017-12-30T12:14:33.698Z,45
2017-12-30T12:15:42.314Z,45
2017-12-30T12:16:50.915Z,45
2017-12-30T12:17:59.506Z,50
2017-12-30T12:19:08.120Z,50
2017-12-30T12:20:16.726Z,35
2017-12-30T12:21:25.332Z,40
2017-12-30T12:22:33.927Z,30
2017-12-30T12:23:42.519Z,35
2017-12-30T12:24:51.134Z,30
2017-12-30T12:25:59.735Z,35
2017-12-30T12:27:08.330Z,40
2017-12-30T12:28:16.943Z,25
2017-12-30T12:29:25.582Z,40
2017-12-30T12:30:34.140Z,35
2017-12-30T12:31:42.749Z,40
2017-12-30T12:32:51.359Z,30
2017-12-30T12:33:59.951Z,35
2017-12-30T12:35:08.828Z,35
2017-12-30T12:36:17.426Z,40
2017-12-30T12:37:26.039Z,35
2017-12-30T12:38:34.910Z,35
2017-12-30T12:39:43.503Z,40
2017-12-30T12:40:52.112Z,40
2017-12-30T12:42:00.724Z,45
2017-12-30T12:43:09.314Z,45
2017-12-30T12:44:17.923Z,35
2017-12-30T12:45:26.535Z,35
2017-12-30T12:46:35.131Z,35
2017-12-30T12:47:43.730Z,45
2017-12-30T12:48:52.345Z,35
2017-12-30T12:50:00.944Z,35
2017-12-30T12:51:09.553Z,35
2017-12-30T12:52:18.152Z,40
2017-12-30T12:53:27.017Z,50
2017-12-30T12:54:35.631Z,60
2017-12-30T12:55:44.222Z,55
2017-12-30T12:56:52.823Z,50
2017-12-30T12:58:01.440Z,55
2017-12-30T12:59:10.040Z,55
2017-12-30T13:00:18.644Z,55
2017-12-30T13:01:27.253Z,65
2017-12-30T13:02:35.854Z,55
2017-12-30T13:03:44.443Z,60
2017-12-30T13:04:53.318Z,65
2017-12-30T13:06:01.918Z,55
2017-12-30T13:07:10.533Z,50
2017-12-30T13:08:19.129Z,60
2017-12-30T13:09:27.724Z,60
2017-12-30T13:10:36.340Z,60
2017-12-30T13:11:44.939Z,65
2017-12-30T13:12:53.533Z,75
2017-12-30T13:14:02.149Z,80
2017-12-30T13:15:10.752Z,75
2017-12-30T13:16:19.864Z,70
2017-12-30T13:17:28.474Z,60
2017-12-30T13:18:37.086Z,55
2017-12-30T13:19:45.688Z,65
2017-12-30T13:20:54.291Z,75
2017-12-30T13:22:02.885Z,65
2017-12-30T13:23:11.497Z,65
2017-12-30T13:24:20.107Z,55
2017-12-30T13:25:28.696Z,50
2017-12-30T13:26:37.313Z,30
2017-12-30T13:27:45.919Z,30
2017-12-30T13:28:54.516Z,40
2017-12-30T13:30:03.375Z,45
2017-12-30T13:31:11.991Z,50
2017-12-30T13:32:20.583Z,55
2017-12-30T13:33:29.184Z,50
2017-12-30T13:34:38.059Z,45
2017-12-30T13:35:46.663Z,50
2017-12-30T13:36:55.260Z,40
2017-12-30T13:38:04.130Z,40
2017-12-30T13:39:12.733Z,50
2017-12-30T13:40:21.329Z,55
2017-12-30T13:41:29.944Z,50
2017-12-30T13:42:38.548Z,60
2017-12-30T13:43:47.147Z,60
2017-12-30T13:44:55.757Z,60
2017-12-30T13:46:04.368Z,65
2017-12-30T13:47:12.962Z,65
2017-12-30T13:48:21.568Z,65
2017-12-30T13:49:30.168Z,60
2017-12-30T13:50:38.779Z,55
2017-12-30T13:51:47.384Z,50
2017-12-30T13:52:56.238Z,50
2017-12-30T13:54:04.847Z,60
2017-12-30T13:55:13.455Z,65
2017-12-30T13:56:22.050Z,60
2017-12-30T13:57:30.659Z,55
2017-12-30T13:58:39.272Z,55
2017-12-30T13:59:47.868Z,65
2017-12-30T14:00:56.468Z,75
2017-12-30T14:02:05.084Z,75
2017-12-30T14:03:13.683Z,70
2017-12-30T14:04:22.292Z,60
2017-12-30T14:05:30.892Z,55
2017-12-30T14:06:39.499Z,55
2017-12-30T14:07:48.115Z,50
2017-12-30T14:08:56.966Z,50
2017-12-30T14:10:05.576Z,50
2017-12-30T14:11:14.187Z,50
2017-12-30T14:12:23.046Z,50
2017-12-30T14:13:31.645Z,45
2017-12-30T14:14:40.262Z,40
2017-12-30T14:15:48.864Z,45
2017-12-30T14:16:57.456Z,45
2017-12-30T14:18:06.068Z,50
2017-12-30T14:19:14.674Z,50
2017-12-30T14:20:23.286Z,45
2017-12-30T14:21:31.889Z,45
2017-12-30T14:22:40.485Z,45
2017-12-30T14:23:49.361Z,45
2017-12-30T14:24:57.967Z,35
2017-12-30T14:26:06.564Z,30
2017-12-30T14:27:15.177Z,25
2017-12-30T14:28:23.781Z,25
2017-12-30T14:29:32.375Z,30
2017-12-30T14:30:40.991Z,40
2017-12-30T14:31:49.612Z,30
2017-12-30T14:32:58.199Z,30
2017-12-30T14:34:06.809Z,35
2017-12-30T14:35:15.421Z,35
2017-12-30T14:36:24.016Z,35
2017-12-30T14:37:32.619Z,35
2017-12-30T14:38:41.243Z,40
2017-12-30T14:39:49.836Z,45
2017-12-30T14:40:58.442Z,40
2017-12-30T14:42:07.052Z,35
2017-12-30T14:43:15.659Z,35
2017-12-30T14:44:24.253Z,40
2017-12-30T14:45:32.872Z,40
2017-12-30T14:46:41.483Z,40
2017-12-30T14:47:50.091Z,30
2017-12-30T14:48:58.687Z,30
2017-12-30T14:50:07.286Z,25
2017-12-30T14:51:15.901Z,20
2017-12-30T14:52:24.503Z,15
2017-12-30T14:53:33.095Z,15
2017-12-30T14:54:41.709Z,15
2017-12-30T14:55:50.317Z,20
2017-12-30T14:56:58.915Z,20
2017-12-30T14:58:07.522Z,15
2017-12-30T14:59:16.135Z,20
2017-12-30T15:00:24.728Z,20
2017-12-30T15:01:33.336Z,20
2017-12-30T15:02:42.196Z,20
2017-12-30T15:03:50.810Z,15
2017-12-30T15:04:59.419Z,15
2017-12-30T15:06:08.014Z,15
2017-12-30T15:07:16.627Z,15
2017-12-30T15:08:25.240Z,10
2017-12-30T15:09:33.833Z,10
2017-12-30T15:10:42.700Z,10
2017-12-30T15:11:51.318Z,5
2017-12-30T15:13:00.186Z,10
2017-12-30T15:14:08.793Z,5
2017-12-30T15:15:17.409Z,5
2017-12-30T15:16:26.010Z,5
2017-12-30T15:17:34.622Z,10
2017-12-30T15:18:43.216Z,5
2017-12-30T15:19:51.822Z,5
2017-12-30T15:21:00.698Z,5
2017-12-30T15:22:09.294Z,5
2017-12-30T15:23:17.892Z,5
2017-12-30T15:24:26.509Z,0
2017-12-30T15:25:35.109Z,0
2017-12-30T15:26:43.709Z,0
2017-12-30T15:27:52.324Z,0
2017-12-30T15:29:00.928Z,0
2017-12-30T15:30:09.521Z,0
2017-12-30T15:31:18.134Z,0
2017-12-30T15:32:26.741Z,0
2017-12-30T15:33:35.593Z,0
2017-12-30T15:34:44.200Z,0
2017-12-30T15:35:52.812Z,0
2017-12-30T15:37:01.407Z,0
2017-12-30T15:38:10.286Z,0
2017-12-30T15:39:18.894Z,0
2017-12-30T15:40:27.490Z,0
2017-12-30T15:41:36.095Z,0
2017-12-30T15:42:44.713Z,0
2017-12-30T15:43:53.308Z,0
2017-12-30T15:45:01.911Z,0
2017-12-30T15:46:10.516Z,0
2017-12-30T15:47:19.124Z,0
2017-12-30T15:48:27.739Z,0
2017-12-30T15:49:36.334Z,0
2017-12-30T15:50:44.936Z,0
2017-12-30T15:51:53.557Z,0
2017-12-30T15:53:02.153Z,0
2017-12-30T15:54:10.753Z,0
2017-12-30T15:55:19.369Z,0
2017-12-30T15:56:27.973Z,0
2017-12-30T15:57:36.567Z,0
2017-12-30T15:58:45.185Z,0
2017-12-30T15:59:53.794Z,0
2017-12-30T16:01:02.400Z,0
2017-12-30T16:02:11.254Z,0
2017-12-30T16:03:19.855Z,0
2017-12-30T16:04:28.471Z,0
2017-12-30T16:05:37.075Z,0
2017-12-30T16:06:45.676Z,0
2017-12-30T16:07:54.285Z,0
2017-12-30T16:09:02.892Z,0
2017-12-30T16:10:11.488Z,0
2017-12-30T16:11:20.100Z,0
2017-12-30T16:12:28.713Z,0
2017-12-30T16:13:37.309Z,0
2017-12-30T16:14:45.914Z,0
2017-12-30T16:15:54.517Z,0
2017-12-30T16:17:03.134Z,0
2017-12-30T16:18:11.737Z,0
2017-12-30T16:19:20.333Z,0
2017-12-30T16:20:28.944Z,0
2017-12-30T16:21:37.558Z,0
2017-12-30T16:22:46.149Z,0
2017-12-30T16:23:54.761Z,0
2017-12-30T16:25:03.374Z,0
2017-12-30T16:26:11.971Z,0
2017-12-30T16:27:20.570Z,0
2017-12-30T16:28:29.188Z,0
2017-12-30T16:29:37.784Z,0
2017-12-30T16:30:46.398Z,0
2017-12-30T16:31:54.990Z,0
2017-12-30T16:33:03.601Z,0
2017-12-30T16:34:12.215Z,0
2017-12-30T16:35:20.813Z,0
2017-12-30T16:36:29.417Z,0
2017-12-30T16:37:38.033Z,0
2017-12-30T16:38:46.628Z,0